createdAt,value
2022-12-17T00:04:26.610Z,25.50
2022-12-17T00:09:27.958Z,14.00
2022-12-17T00:14:29.731Z,17.60
2022-12-17T00:19:37.568Z,1.00
2022-12-17T00:24:39.442Z,1.00
2022-12-17T00:29:42.279Z,1.00
2022-12-17T00:34:48.688Z,3.00
2022-12-17T00:39:56.157Z,6.40
2022-12-17T00:57:53.908Z,43.90
2022-12-17T01:04:22.057Z,31.50
2022-12-17T01:09:27.935Z,46.30
2022-12-17T01:14:29.957Z,44.30
2022-12-17T01:19:38.062Z,53.00
2022-12-17T01:24:41.563Z,76.60
2022-12-17T01:29:42.991Z,92.70
2022-12-17T01:34:58.554Z,90.80
2022-12-17T01:40:21.907Z,99.90
2022-12-17T01:45:30.944Z,99.90
2022-12-17T01:50:33.667Z,99.90
2022-12-17T01:55:47.876Z,99.90
2022-12-17T02:01:25.206Z,99.90
2022-12-17T02:06:45.799Z,99.90
2022-12-17T02:12:07.596Z,99.90
2022-12-17T02:17:21.431Z,99.90
2022-12-17T02:22:43.200Z,99.90
2022-12-17T02:46:43.779Z,99.90
2022-12-17T02:58:51.226Z,99.90
2022-12-17T03:12:42.067Z,99.90
2022-12-17T03:17:58.060Z,99.90
2022-12-17T03:23:02.951Z,99.90
2022-12-17T03:47:06.495Z,99.90
2022-12-17T03:52:10.386Z,99.90
2022-12-17T04:03:23.684Z,99.90
2022-12-17T04:15:38.483Z,99.90
2022-12-17T04:20:43.093Z,99.90
2022-12-17T04:38:17.091Z,99.90
2022-12-17T04:44:03.503Z,99.90
2022-12-17T04:49:39.141Z,99.90
2022-12-17T04:55:00.102Z,99.90
2022-12-17T05:00:19.943Z,99.90
2022-12-17T05:05:40.000Z,99.90
2022-12-17T05:11:04.664Z,99.90
2022-12-17T05:16:38.383Z,99.90
2022-12-17T05:21:43.510Z,99.90
2022-12-17T05:26:50.158Z,99.90
2022-12-17T05:31:54.932Z,99.90
2022-12-17T05:37:28.600Z,99.90
2022-12-17T05:42:42.964Z,99.90
2022-12-17T05:54:14.960Z,99.90
2022-12-17T05:59:21.808Z,99.90
2022-12-17T06:04:23.585Z,99.90
2022-12-17T06:15:39.076Z,99.90
2022-12-17T06:28:27.425Z,99.90
2022-12-17T06:46:32.869Z,99.90
2022-12-17T06:57:29.366Z,99.90
2022-12-17T07:02:58.641Z,99.90
2022-12-17T07:08:09.358Z,99.90
2022-12-17T07:19:37.712Z,99.90
2022-12-17T07:30:31.962Z,99.90
2022-12-17T07:35:47.739Z,99.90
2022-12-17T07:40:59.676Z,99.90
2022-12-17T07:46:27.822Z,99.90
2022-12-17T07:52:05.368Z,99.90
2022-12-17T07:57:12.244Z,99.90
2022-12-17T08:08:57.667Z,99.90
2022-12-17T08:14:34.879Z,99.90
2022-12-17T08:19:53.656Z,99.90
2022-12-17T08:37:56.987Z,1.00
2022-12-17T08:43:52.338Z,1.00
2022-12-17T09:14:27.988Z,99.90
2022-12-17T09:19:39.094Z,1.00
2022-12-17T09:24:51.507Z,1.00
2022-12-17T09:30:01.965Z,1.00
2022-12-17T09:35:18.216Z,1.00
2022-12-17T09:47:18.761Z,99.90
2022-12-17T10:18:17.659Z,99.90
2022-12-17T10:24:06.420Z,99.90
2022-12-17T10:29:29.584Z,99.90
2022-12-17T10:35:04.828Z,99.90
2022-12-17T10:40:20.056Z,99.90
2022-12-17T10:45:53.523Z,99.90
2022-12-17T10:51:06.307Z,99.90
2022-12-17T10:56:43.664Z,99.90
2022-12-17T11:02:10.116Z,99.90
2022-12-17T11:07:21.006Z,99.90
2022-12-17T11:12:30.889Z,99.90
2022-12-17T11:18:11.767Z,90.80
2022-12-17T11:23:37.941Z,71.70
2022-12-17T11:29:26.066Z,78.30
2022-12-17T11:34:42.730Z,64.50
2022-12-17T11:40:09.760Z,53.80
2022-12-17T11:46:01.838Z,46.30
2022-12-17T11:51:46.604Z,41.80
2022-12-17T12:04:35.032Z,13.40
2022-12-17T12:23:50.254Z,1.00
2022-12-17T12:29:11.041Z,1.00
2022-12-17T12:53:56.559Z,1.00
2022-12-17T12:59:07.210Z,1.00
2022-12-17T13:04:55.674Z,1.00
2022-12-17T13:15:52.966Z,1.00
2022-12-17T13:26:33.985Z,1.00
2022-12-17T13:31:52.753Z,1.00
2022-12-17T13:37:27.508Z,1.00
2022-12-17T14:01:24.382Z,1.20
2022-12-17T14:06:35.257Z,1.00
2022-12-17T14:12:09.045Z,6.50
2022-12-17T14:17:27.934Z,2.60
2022-12-17T14:22:51.314Z,9.10
2022-12-17T14:28:09.340Z,7.40
2022-12-17T14:46:32.643Z,16.50
2022-12-17T14:51:37.068Z,19.80
2022-12-17T14:56:50.874Z,14.40
2022-12-17T15:01:57.725Z,18.10
2022-12-17T15:06:59.756Z,22.80
2022-12-17T15:22:58.907Z,24.50
2022-12-17T15:28:38.274Z,25.40
2022-12-17T15:33:45.515Z,40.70
2022-12-17T15:38:58.988Z,21.80
2022-12-17T15:44:18.516Z,25.20
2022-12-17T15:49:42.788Z,40.30
2022-12-17T15:55:07.717Z,61.70
2022-12-17T16:00:38.629Z,41.80
2022-12-17T16:06:13.000Z,50.60
2022-12-17T16:11:52.105Z,43.40
2022-12-17T16:16:42.367Z,59.90
2022-12-17T16:22:02.778Z,81.90
2022-12-17T16:27:16.214Z,77.50
2022-12-17T16:32:49.332Z,61.40
2022-12-17T16:38:00.829Z,99.90
2022-12-17T16:43:21.178Z,99.90
2022-12-17T16:48:36.141Z,1.00
2022-12-17T16:59:49.651Z,1.00
2022-12-17T17:05:12.121Z,1.00
2022-12-17T17:10:28.019Z,99.90
2022-12-17T17:15:36.305Z,99.90
2022-12-17T17:20:39.419Z,1.00
2022-12-17T17:25:58.786Z,1.00
2022-12-17T17:31:22.067Z,1.00
2022-12-17T17:44:21.831Z,1.00
2022-12-17T17:49:28.136Z,62.50
2022-12-17T17:54:33.723Z,1.00
2022-12-17T17:59:39.443Z,1.00
2022-12-17T18:04:51.889Z,1.00
2022-12-17T18:09:43.463Z,1.00
2022-12-17T18:15:12.022Z,1.00
2022-12-17T18:20:36.387Z,34.40
2022-12-17T18:25:46.888Z,33.60
2022-12-17T18:30:48.416Z,99.90
2022-12-17T18:35:37.819Z,1.00
2022-12-17T18:40:26.566Z,1.00
2022-12-17T18:45:27.457Z,99.90
2022-12-17T18:50:16.829Z,1.00
2022-12-17T18:55:19.952Z,99.90
2022-12-17T19:00:08.307Z,99.90
2022-12-17T19:04:55.523Z,1.00
2022-12-17T19:09:45.294Z,98.90
2022-12-17T19:14:43.685Z,1.00
2022-12-17T19:19:49.939Z,1.00
2022-12-17T19:24:40.146Z,99.90
2022-12-17T19:29:26.497Z,99.90
2022-12-17T19:34:18.332Z,99.90
2022-12-17T19:39:06.145Z,99.90
2022-12-17T19:44:03.722Z,99.90
2022-12-17T19:49:13.221Z,99.90
2022-12-17T19:54:35.469Z,99.90
2022-12-17T19:59:32.920Z,1.00
2022-12-17T20:04:26.209Z,1.00
2022-12-17T20:09:12.013Z,1.00
2022-12-17T20:14:16.428Z,1.00
2022-12-17T20:19:04.537Z,99.90
2022-12-17T20:23:53.497Z,99.90
2022-12-17T20:28:40.915Z,99.90
2022-12-17T20:33:27.503Z,99.90
2022-12-17T20:38:13.180Z,99.90
2022-12-17T20:43:06.697Z,99.90
2022-12-17T20:47:51.501Z,99.90
2022-12-17T20:52:38.334Z,99.90
2022-12-17T20:57:27.660Z,99.90
2022-12-17T21:02:15.624Z,99.90
2022-12-17T21:07:03.171Z,99.90
2022-12-17T21:11:53.186Z,99.90
2022-12-17T21:16:40.449Z,99.90
2022-12-17T21:21:29.450Z,99.90
2022-12-17T21:27:20.104Z,99.90
2022-12-17T21:33:31.461Z,99.90
2022-12-17T21:38:44.447Z,99.90
2022-12-17T21:43:34.578Z,99.90
2022-12-17T21:48:23.493Z,99.90
2022-12-17T21:53:10.243Z,99.90
2022-12-17T21:57:58.521Z,99.90
2022-12-17T22:02:45.768Z,99.90
2022-12-17T22:07:46.426Z,99.90
2022-12-17T22:13:07.785Z,1.00
2022-12-17T22:18:00.025Z,1.00
2022-12-17T22:22:46.539Z,99.90
2022-12-17T22:27:35.181Z,1.00
2022-12-17T22:32:38.305Z,1.00
2022-12-17T22:40:06.701Z,1.00
2022-12-17T22:44:33.706Z,99.90
2022-12-17T22:48:25.800Z,1.00
2022-12-17T22:53:46.117Z,99.90
2022-12-17T22:58:30.331Z,1.00
2022-12-17T23:03:19.189Z,1.00
2022-12-17T23:08:04.989Z,1.00
2022-12-17T23:13:15.289Z,1.00
2022-12-17T23:18:14.529Z,1.00
2022-12-17T23:23:02.858Z,99.90
2022-12-17T23:27:51.073Z,99.90
2022-12-17T23:32:41.105Z,99.90
2022-12-17T23:37:27.438Z,99.90
2022-12-17T23:42:12.939Z,1.00
2022-12-17T23:47:01.907Z,1.00
2022-12-17T23:51:54.922Z,99.90
2022-12-17T23:56:39.701Z,1.00
